createdAt,value
2018-07-07T00:01:28.005Z,11.55
2018-07-07T00:04:02.218Z,11.57
2018-07-07T00:06:35.645Z,15.95
2018-07-07T00:09:09.088Z,11.95
2018-07-07T00:11:42.468Z,12.15
2018-07-07T00:14:15.896Z,8.40
2018-07-07T00:16:49.264Z,12.05
2018-07-07T00:19:22.697Z,8.28
2018-07-07T00:21:56.063Z,10.30
2018-07-07T00:24:29.472Z,10.90
2018-07-07T00:27:02.836Z,13.62
2018-07-07T00:29:37.116Z,8.40
2018-07-07T00:32:10.599Z,9.20
2018-07-07T00:34:43.998Z,10.72
2018-07-07T00:37:17.375Z,9.78
2018-07-07T00:39:50.787Z,9.28
2018-07-07T00:42:24.162Z,11.78
2018-07-07T00:44:57.606Z,14.70
2018-07-07T00:47:31.031Z,9.58
2018-07-07T00:50:04.829Z,9.95
2018-07-07T00:52:38.206Z,10.65
2018-07-07T00:55:11.604Z,9.85
2018-07-07T00:57:45.024Z,13.53
2018-07-07T01:00:18.415Z,12.40
2018-07-07T01:02:51.767Z,11.70
2018-07-07T01:05:35.017Z,10.90
2018-07-07T01:08:08.383Z,9.58
2018-07-07T01:10:41.795Z,9.08
2018-07-07T01:13:15.703Z,11.20
2018-07-07T01:15:49.110Z,13.03
2018-07-07T01:18:22.490Z,10.82
2018-07-07T01:20:55.869Z,9.60
2018-07-07T01:23:29.222Z,9.63
2018-07-07T01:26:02.632Z,14.40
2018-07-07T01:28:36.027Z,7.83
2018-07-07T01:31:09.999Z,9.65
2018-07-07T01:33:43.394Z,8.70
2018-07-07T01:36:16.791Z,7.10
2018-07-07T01:38:50.148Z,8.80
2018-07-07T01:41:23.576Z,10.50
2018-07-07T01:43:56.972Z,14.18
2018-07-07T01:46:30.378Z,8.70
2018-07-07T01:49:03.806Z,9.23
2018-07-07T01:51:37.195Z,9.30
2018-07-07T01:54:10.621Z,13.65
2018-07-07T01:56:44.035Z,9.15
2018-07-07T01:59:17.436Z,9.55
2018-07-07T02:01:50.904Z,7.67
2018-07-07T02:04:24.349Z,8.50
2018-07-07T02:06:58.592Z,14.68
2018-07-07T02:09:32.036Z,8.05
2018-07-07T02:12:06.277Z,11.80
2018-07-07T02:14:39.655Z,9.80
2018-07-07T02:17:13.044Z,13.72
2018-07-07T02:19:46.440Z,12.78
2018-07-07T02:22:22.742Z,8.30
2018-07-07T02:24:56.131Z,11.57
2018-07-07T02:27:29.494Z,8.68
2018-07-07T02:30:02.892Z,10.25
2018-07-07T02:32:36.344Z,10.70
2018-07-07T02:35:09.737Z,10.95
2018-07-07T02:37:43.119Z,6.45
2018-07-07T02:40:16.547Z,8.95
2018-07-07T02:42:49.954Z,9.95
2018-07-07T02:45:23.461Z,9.83
2018-07-07T02:47:56.812Z,9.55
2018-07-07T02:50:30.243Z,11.05
2018-07-07T02:53:03.611Z,18.07
2018-07-07T02:55:37.006Z,8.33
2018-07-07T02:58:10.372Z,17.27
2018-07-07T03:00:43.785Z,11.38
2018-07-07T03:03:17.189Z,10.48
2018-07-07T03:05:50.655Z,11.40
2018-07-07T03:08:24.045Z,12.00
2018-07-07T03:10:57.520Z,12.70
2018-07-07T03:13:30.952Z,10.18
2018-07-07T03:16:04.358Z,11.20
2018-07-07T03:18:37.747Z,15.93
2018-07-07T03:21:11.158Z,12.13
2018-07-07T03:23:44.532Z,11.12
2018-07-07T03:26:18.160Z,18.75
2018-07-07T03:28:51.527Z,18.48
2018-07-07T03:31:24.913Z,12.30
2018-07-07T03:33:58.315Z,13.25
2018-07-07T03:36:31.743Z,12.28
2018-07-07T03:39:06.563Z,14.70
2018-07-07T03:41:39.939Z,17.75
2018-07-07T03:44:13.318Z,11.85
2018-07-07T03:46:46.734Z,16.05
2018-07-07T03:49:20.156Z,12.10
2018-07-07T03:51:53.521Z,13.43
2018-07-07T03:54:26.931Z,13.05
2018-07-07T03:57:00.392Z,11.38
2018-07-07T03:59:33.772Z,12.10
2018-07-07T04:02:08.906Z,8.45
2018-07-07T04:04:42.284Z,11.08
2018-07-07T04:07:15.756Z,13.40
2018-07-07T04:09:49.206Z,8.75
2018-07-07T04:12:22.664Z,13.10
2018-07-07T04:14:56.032Z,12.03
2018-07-07T04:17:29.436Z,7.85
2018-07-07T04:20:02.807Z,10.95
2018-07-07T04:22:36.219Z,9.05
2018-07-07T04:25:09.604Z,9.05
2018-07-07T04:27:43.023Z,11.12
2018-07-07T04:30:16.405Z,15.70
2018-07-07T04:32:49.870Z,7.67
2018-07-07T04:35:23.232Z,16.52
2018-07-07T04:37:56.634Z,8.28
2018-07-07T04:40:30.004Z,8.60
2018-07-07T04:43:03.407Z,9.03
2018-07-07T04:45:36.837Z,12.90
2018-07-07T04:48:10.280Z,10.10
2018-07-07T04:50:43.703Z,12.18
2018-07-07T04:53:17.122Z,11.35
2018-07-07T04:55:50.497Z,12.23
2018-07-07T04:58:24.791Z,12.55
2018-07-07T05:00:58.211Z,11.33
2018-07-07T05:03:31.632Z,10.65
2018-07-07T05:06:05.809Z,11.65
2018-07-07T05:08:39.218Z,7.75
2018-07-07T05:11:12.597Z,9.68
2018-07-07T05:13:46.067Z,7.40
2018-07-07T05:16:19.505Z,10.15
2018-07-07T05:18:52.899Z,9.05
2018-07-07T05:21:26.272Z,9.75
2018-07-07T05:23:59.680Z,10.78
2018-07-07T05:26:33.032Z,9.75
2018-07-07T05:29:06.420Z,13.83
2018-07-07T05:31:39.845Z,9.45
2018-07-07T05:34:13.258Z,7.70
2018-07-07T05:36:46.649Z,11.85
2018-07-07T05:39:20.037Z,9.65
2018-07-07T05:41:53.916Z,8.13
2018-07-07T05:44:27.293Z,11.88
2018-07-07T05:47:00.640Z,7.53
2018-07-07T05:49:34.034Z,11.33
2018-07-07T05:52:07.419Z,9.85
2018-07-07T05:54:40.822Z,10.58
2018-07-07T05:57:14.212Z,8.53
2018-07-07T05:59:47.634Z,8.30
2018-07-07T06:02:21.047Z,9.30
2018-07-07T06:04:54.507Z,8.50
2018-07-07T06:07:27.910Z,14.33
2018-07-07T06:10:01.322Z,5.83
2018-07-07T06:12:34.823Z,6.40
2018-07-07T06:15:08.847Z,9.33
2018-07-07T06:17:42.289Z,9.18
2018-07-07T06:20:15.648Z,8.08
2018-07-07T06:22:49.032Z,7.25
2018-07-07T06:25:22.371Z,9.25
2018-07-07T06:27:55.788Z,9.88
2018-07-07T06:30:29.150Z,8.73
2018-07-07T06:33:02.547Z,7.10
2018-07-07T06:35:35.949Z,7.28
2018-07-07T06:38:09.337Z,9.00
2018-07-07T06:40:42.690Z,5.50
2018-07-07T06:43:16.173Z,6.58
2018-07-07T06:45:49.552Z,7.60
2018-07-07T06:48:22.942Z,4.60
2018-07-07T06:50:56.361Z,6.45
2018-07-07T06:53:29.759Z,6.03
2018-07-07T06:56:03.133Z,7.08
2018-07-07T06:58:36.554Z,8.33
2018-07-07T07:01:09.915Z,6.65
2018-07-07T07:03:43.419Z,3.87
2018-07-07T07:06:16.813Z,4.45
2018-07-07T07:08:50.202Z,9.05
2018-07-07T07:11:23.562Z,5.33
2018-07-07T07:13:57.006Z,5.33
2018-07-07T07:16:30.361Z,4.92
2018-07-07T07:19:04.474Z,6.60
2018-07-07T07:21:38.108Z,4.30
2018-07-07T07:24:11.481Z,7.62
2018-07-07T07:26:44.884Z,7.42
2018-07-07T07:29:18.408Z,6.75
2018-07-07T07:31:51.779Z,6.50
2018-07-07T07:34:25.226Z,7.37
2018-07-07T07:36:58.695Z,6.25
2018-07-07T07:39:32.104Z,5.87
2018-07-07T07:42:05.514Z,8.15
2018-07-07T07:44:38.915Z,10.45
2018-07-07T07:47:12.285Z,5.20
2018-07-07T07:49:45.686Z,5.50
2018-07-07T07:52:19.034Z,8.20
2018-07-07T07:54:52.514Z,5.03
2018-07-07T07:57:25.861Z,9.05
2018-07-07T08:00:00.056Z,6.65
2018-07-07T08:02:33.495Z,3.67
2018-07-07T08:05:07.064Z,7.33
2018-07-07T08:07:40.424Z,4.65
2018-07-07T08:10:13.868Z,5.47
2018-07-07T08:12:47.269Z,7.28
2018-07-07T08:15:20.654Z,4.37
2018-07-07T08:17:54.023Z,6.28
2018-07-07T08:20:27.420Z,11.95
2018-07-07T08:23:00.999Z,5.47
2018-07-07T08:25:34.364Z,3.92
2018-07-07T08:28:07.808Z,6.22
2018-07-07T08:30:41.208Z,4.78
2018-07-07T08:33:14.632Z,4.75
2018-07-07T08:35:48.039Z,6.30
2018-07-07T08:38:21.417Z,5.03
2018-07-07T08:40:54.797Z,5.22
2018-07-07T08:43:28.147Z,4.92
2018-07-07T08:46:01.622Z,4.30
2018-07-07T08:48:35.000Z,5.80
2018-07-07T08:51:08.409Z,6.40
2018-07-07T08:53:41.781Z,3.30
2018-07-07T08:56:15.186Z,4.65
2018-07-07T08:58:48.592Z,5.47
2018-07-07T09:01:21.983Z,3.47
2018-07-07T09:03:55.370Z,3.45
2018-07-07T09:06:28.780Z,5.47
2018-07-07T09:09:02.163Z,5.30
2018-07-07T09:11:35.578Z,5.28
2018-07-07T09:14:09.005Z,4.28
2018-07-07T09:16:42.468Z,4.83
2018-07-07T09:19:15.833Z,4.35
2018-07-07T09:21:49.248Z,7.33
2018-07-07T09:24:22.665Z,3.72
2018-07-07T09:26:56.120Z,7.15
2018-07-07T09:29:29.501Z,6.50
2018-07-07T09:32:02.937Z,3.85
2018-07-07T09:34:36.314Z,3.75
2018-07-07T09:37:09.704Z,6.35
2018-07-07T09:39:43.105Z,4.00
2018-07-07T09:42:16.542Z,4.20
2018-07-07T09:44:49.975Z,4.17
2018-07-07T09:47:23.341Z,4.25
2018-07-07T09:49:56.723Z,4.20
2018-07-07T09:52:30.095Z,3.65
2018-07-07T09:55:03.507Z,5.00
2018-07-07T09:57:36.993Z,3.30
2018-07-07T10:00:16.599Z,3.67
2018-07-07T10:02:50.008Z,4.00
2018-07-07T10:05:25.340Z,7.65
2018-07-07T10:07:58.714Z,5.37
2018-07-07T10:10:32.131Z,5.20
2018-07-07T10:13:06.361Z,2.50
2018-07-07T10:15:39.738Z,5.08
2018-07-07T10:18:13.112Z,6.33
2018-07-07T10:20:46.632Z,6.95
2018-07-07T10:23:19.954Z,3.35
2018-07-07T10:25:53.331Z,6.03
2018-07-07T10:28:26.799Z,3.25
2018-07-07T10:31:00.259Z,4.00
2018-07-07T10:33:33.679Z,4.25
2018-07-07T10:36:08.193Z,4.15
2018-07-07T10:38:41.584Z,8.88
2018-07-07T10:41:15.048Z,5.15
2018-07-07T10:43:48.431Z,5.17
2018-07-07T10:46:21.951Z,4.05
2018-07-07T10:48:55.379Z,5.75
2018-07-07T10:51:28.759Z,3.75
2018-07-07T10:54:02.154Z,6.15
2018-07-07T10:56:35.592Z,5.03
2018-07-07T10:59:08.976Z,5.50
2018-07-07T11:01:42.406Z,4.28
2018-07-07T11:04:16.047Z,6.30
2018-07-07T11:06:49.793Z,6.42
2018-07-07T11:09:23.265Z,8.28
2018-07-07T11:11:56.781Z,5.83
2018-07-07T11:14:30.187Z,9.53
2018-07-07T11:17:03.663Z,3.90
2018-07-07T11:19:37.023Z,6.17
2018-07-07T11:22:10.609Z,4.67
2018-07-07T11:24:44.128Z,8.20
2018-07-07T11:27:17.559Z,5.00
2018-07-07T11:29:50.980Z,4.85
2018-07-07T11:32:24.346Z,5.28
2018-07-07T11:34:57.703Z,4.62
2018-07-07T11:37:31.101Z,3.50
2018-07-07T11:40:04.878Z,3.85
2018-07-07T11:42:38.316Z,4.78
2018-07-07T11:45:11.707Z,6.10
2018-07-07T11:47:45.142Z,4.65
2018-07-07T11:50:18.687Z,5.85
2018-07-07T11:52:51.994Z,4.87
2018-07-07T11:55:25.496Z,4.58
2018-07-07T11:57:58.893Z,3.67
2018-07-07T12:00:32.349Z,5.28
2018-07-07T12:03:05.914Z,5.25
2018-07-07T12:05:39.285Z,4.90
2018-07-07T12:08:13.992Z,3.35
2018-07-07T12:10:46.259Z,2.85
2018-07-07T12:13:19.671Z,5.45
2018-07-07T12:15:53.589Z,2.87
2018-07-07T12:18:26.991Z,3.30
2018-07-07T12:21:00.386Z,4.40
2018-07-07T12:23:33.755Z,7.97
2018-07-07T12:26:07.148Z,5.85
2018-07-07T12:28:40.582Z,8.83
2018-07-07T12:31:13.968Z,4.28
2018-07-07T12:33:47.380Z,5.65
2018-07-07T12:36:20.827Z,4.28
2018-07-07T12:38:54.461Z,4.47
2018-07-07T12:41:27.837Z,3.15
2018-07-07T12:44:01.321Z,5.00
2018-07-07T12:46:34.772Z,3.83
2018-07-07T12:49:08.610Z,3.87
2018-07-07T12:51:42.322Z,5.37
2018-07-07T12:54:16.145Z,5.47
2018-07-07T12:56:49.644Z,4.90
2018-07-07T12:59:23.893Z,8.53
2018-07-07T13:01:58.420Z,3.92
2018-07-07T13:04:31.840Z,4.50
2018-07-07T13:07:05.741Z,2.45
2018-07-07T13:09:39.106Z,3.90
2018-07-07T13:12:12.506Z,2.55
2018-07-07T13:14:45.934Z,4.58
2018-07-07T13:17:19.395Z,4.47
2018-07-07T13:19:53.348Z,5.10
2018-07-07T13:22:26.852Z,3.00
2018-07-07T13:25:00.304Z,7.50
2018-07-07T13:27:34.033Z,3.55
2018-07-07T13:30:08.178Z,4.47
2018-07-07T13:32:41.596Z,3.80
2018-07-07T13:35:15.029Z,7.55
2018-07-07T13:37:48.456Z,5.40
2018-07-07T13:40:21.938Z,8.15
2018-07-07T13:43:00.606Z,4.50
2018-07-07T13:45:34.079Z,3.37
2018-07-07T13:48:07.486Z,5.35
2018-07-07T13:50:40.904Z,6.97
2018-07-07T13:53:16.459Z,5.33
2018-07-07T13:55:49.904Z,4.35
2018-07-07T13:58:23.387Z,3.42
2018-07-07T14:00:57.597Z,5.30
2018-07-07T14:03:31.022Z,3.22
2018-07-07T14:06:04.896Z,3.10
2018-07-07T14:08:38.346Z,4.70
2018-07-07T14:11:11.918Z,3.22
2018-07-07T14:13:45.356Z,3.00
2018-07-07T14:16:19.128Z,7.47
2018-07-07T14:18:52.848Z,3.98
2018-07-07T14:21:26.450Z,4.83
2018-07-07T14:23:59.981Z,3.70
2018-07-07T14:26:33.496Z,4.67
2018-07-07T14:29:06.947Z,3.70
2018-07-07T14:31:40.365Z,5.97
2018-07-07T14:34:13.783Z,3.60
2018-07-07T14:36:47.211Z,3.70
2018-07-07T14:39:20.603Z,5.70
2018-07-07T14:42:02.815Z,2.17
2018-07-07T14:44:36.334Z,5.50
2018-07-07T14:47:09.712Z,3.55
2018-07-07T14:49:43.456Z,4.20
2018-07-07T14:52:16.842Z,3.77
2018-07-07T14:54:50.297Z,2.10
2018-07-07T14:57:23.709Z,4.45
2018-07-07T14:59:57.139Z,2.02
2018-07-07T15:02:30.583Z,3.72
2018-07-07T15:05:04.749Z,5.03
2018-07-07T15:07:38.130Z,5.17
2018-07-07T15:10:12.464Z,4.08
2018-07-07T15:12:46.871Z,7.70
2018-07-07T15:15:20.290Z,5.37
2018-07-07T15:17:53.688Z,5.72
2018-07-07T15:20:27.121Z,5.22
2018-07-07T15:23:00.546Z,5.62
2018-07-07T15:25:33.986Z,8.80
2018-07-07T15:28:07.379Z,3.35
2018-07-07T15:30:40.916Z,4.20
2018-07-07T15:33:14.278Z,2.60
2018-07-07T15:35:47.959Z,2.17
2018-07-07T15:38:21.376Z,2.72
2018-07-07T15:40:54.753Z,3.50
2018-07-07T15:43:28.134Z,8.03
2018-07-07T15:46:01.594Z,3.05
2018-07-07T15:48:35.092Z,3.37
2018-07-07T15:51:08.500Z,4.58
2018-07-07T15:53:41.875Z,2.80
2018-07-07T15:56:15.294Z,3.20
2018-07-07T15:58:48.735Z,2.65
2018-07-07T16:01:31.966Z,4.12
2018-07-07T16:04:05.448Z,4.15
2018-07-07T16:06:38.843Z,4.50
2018-07-07T16:09:12.230Z,2.40
2018-07-07T16:11:45.962Z,2.95
2018-07-07T16:14:19.460Z,3.75
2018-07-07T16:16:52.831Z,2.52
2018-07-07T16:19:26.325Z,3.90
2018-07-07T16:21:59.798Z,3.15
2018-07-07T16:24:33.254Z,3.98
2018-07-07T16:27:07.009Z,3.35
2018-07-07T16:29:40.391Z,5.22
2018-07-07T16:32:13.789Z,4.58
2018-07-07T16:34:47.291Z,3.80
2018-07-07T16:37:20.695Z,5.10
2018-07-07T16:39:54.175Z,4.35
2018-07-07T16:42:27.571Z,3.75
2018-07-07T16:45:01.096Z,4.95
2018-07-07T16:47:35.123Z,4.10
2018-07-07T16:50:08.538Z,5.50
2018-07-07T16:52:41.968Z,2.65
2018-07-07T16:55:15.456Z,3.67
2018-07-07T16:57:48.953Z,4.28
2018-07-07T17:00:22.443Z,4.85
2018-07-07T17:02:56.047Z,3.83
2018-07-07T17:05:29.568Z,5.37
2018-07-07T17:08:03.095Z,8.23
2018-07-07T17:10:36.528Z,4.72
2018-07-07T17:13:09.996Z,5.05
2018-07-07T17:15:43.471Z,5.67
2018-07-07T17:18:16.916Z,2.00
2018-07-07T17:20:50.383Z,5.30
2018-07-07T17:23:46.277Z,2.55
2018-07-07T17:26:36.550Z,8.08
2018-07-07T17:32:17.047Z,4.20
2018-07-07T17:35:02.144Z,3.45
2018-07-07T17:37:36.015Z,5.20
2018-07-07T17:40:09.463Z,2.95
2018-07-07T17:42:43.052Z,3.45
2018-07-07T17:45:16.947Z,3.98
2018-07-07T17:47:51.569Z,4.78
2018-07-07T17:50:25.531Z,5.05
2018-07-07T17:52:59.940Z,5.37
2018-07-07T17:55:34.234Z,2.70
2018-07-07T17:58:08.395Z,5.80
2018-07-07T18:00:44.528Z,3.42
2018-07-07T18:03:19.067Z,3.87
2018-07-07T18:05:53.646Z,5.12
2018-07-07T18:08:38.400Z,4.78
2018-07-07T18:11:12.614Z,4.25
2018-07-07T18:13:46.947Z,4.58
2018-07-07T18:16:23.418Z,5.10
2018-07-07T18:18:57.475Z,4.30
2018-07-07T18:21:31.628Z,6.62
2018-07-07T18:24:05.820Z,4.62
2018-07-07T18:26:41.921Z,4.92
2018-07-07T18:29:18.575Z,4.17
2018-07-07T18:32:01.122Z,5.67
2018-07-07T18:34:42.699Z,5.10
2018-07-07T18:37:21.764Z,3.98
2018-07-07T18:39:55.248Z,4.97
2018-07-07T18:42:28.690Z,3.60
2018-07-07T18:45:02.109Z,4.53
2018-07-07T18:47:35.520Z,7.10
2018-07-07T18:50:08.935Z,3.42
2018-07-07T18:52:42.359Z,5.53
2018-07-07T18:55:15.777Z,4.85
2018-07-07T18:57:49.184Z,5.70
2018-07-07T19:00:22.549Z,3.12
2018-07-07T19:02:55.946Z,2.70
2018-07-07T19:05:29.320Z,3.20
2018-07-07T19:08:02.719Z,6.50
2018-07-07T19:10:36.111Z,4.80
2018-07-07T19:13:09.538Z,4.40
2018-07-07T19:15:46.145Z,4.25
2018-07-07T19:18:19.578Z,3.35
2018-07-07T19:20:58.477Z,8.05
2018-07-07T19:23:37.050Z,6.47
2018-07-07T19:26:15.712Z,4.87
2018-07-07T19:28:49.140Z,4.50
2018-07-07T19:31:22.537Z,5.90
2018-07-07T19:34:01.339Z,3.25
2018-07-07T19:37:39.955Z,3.55
2018-07-07T19:40:13.407Z,3.65
2018-07-07T19:42:49.206Z,3.45
2018-07-07T19:45:22.580Z,3.85
2018-07-07T19:47:55.974Z,6.15
2018-07-07T19:50:29.368Z,4.55
2018-07-07T19:53:02.778Z,3.83
2018-07-07T19:55:36.149Z,2.67
2018-07-07T19:58:09.548Z,4.60
2018-07-07T20:00:42.938Z,6.70
2018-07-07T20:03:16.357Z,5.53
2018-07-07T20:05:49.739Z,3.08
2018-07-07T20:08:23.186Z,5.28
2018-07-07T20:10:57.437Z,4.95
2018-07-07T20:13:30.968Z,4.90
2018-07-07T20:16:13.663Z,3.65
2018-07-07T20:19:16.318Z,9.90
2018-07-07T20:21:51.974Z,5.10
2018-07-07T20:24:38.749Z,2.85
2018-07-07T20:27:17.402Z,4.47
2018-07-07T20:29:50.855Z,5.33
2018-07-07T20:32:29.465Z,2.83
2018-07-07T20:35:02.937Z,6.60
2018-07-07T20:37:36.342Z,5.42
2018-07-07T20:40:09.787Z,7.00
2018-07-07T20:42:43.214Z,4.58
2018-07-07T20:45:16.627Z,3.67
2018-07-07T20:47:50.113Z,8.68
2018-07-07T20:50:23.719Z,5.25
2018-07-07T20:52:57.095Z,3.55
2018-07-07T20:55:30.570Z,6.40
2018-07-07T20:58:03.993Z,4.37
2018-07-07T21:00:37.387Z,4.70
2018-07-07T21:03:11.312Z,6.95
2018-07-07T21:05:45.392Z,6.03
2018-07-07T21:08:19.044Z,4.55
2018-07-07T21:10:52.834Z,10.72
2018-07-07T21:13:27.784Z,6.37
2018-07-07T21:16:01.587Z,4.75
2018-07-07T21:18:34.963Z,5.50
2018-07-07T21:21:08.369Z,7.58
2018-07-07T21:23:41.855Z,4.83
2018-07-07T21:26:17.992Z,7.62
2018-07-07T21:28:51.525Z,4.97
2018-07-07T21:31:25.631Z,4.37
2018-07-07T21:33:59.064Z,5.67
2018-07-07T21:36:32.461Z,5.65
2018-07-07T21:39:06.735Z,5.60
2018-07-07T21:41:40.154Z,3.62
2018-07-07T21:44:13.555Z,5.15
2018-07-07T21:46:47.059Z,7.92
2018-07-07T21:49:20.500Z,7.62
2018-07-07T21:51:53.911Z,8.70
2018-07-07T21:54:27.325Z,9.05
2018-07-07T21:57:00.746Z,5.00
2018-07-07T21:59:34.174Z,9.18
2018-07-07T22:02:12.806Z,8.83
2018-07-07T22:04:51.526Z,5.20
2018-07-07T22:07:30.169Z,7.08
2018-07-07T22:10:03.611Z,5.87
2018-07-07T22:12:37.135Z,7.37
2018-07-07T22:15:10.638Z,6.58
2018-07-07T22:17:44.046Z,8.50
2018-07-07T22:20:27.504Z,8.50
2018-07-07T22:23:00.904Z,5.03
2018-07-07T22:25:34.332Z,7.60
2018-07-07T22:28:07.805Z,7.72
2018-07-07T22:30:41.240Z,8.80
2018-07-07T22:33:20.355Z,8.75
2018-07-07T22:35:59.201Z,6.45
2018-07-07T22:38:38.017Z,6.60
2018-07-07T22:41:11.465Z,4.72
2018-07-07T22:43:44.855Z,7.72
2018-07-07T22:46:18.300Z,8.93
2018-07-07T22:48:52.085Z,5.25
2018-07-07T22:51:25.491Z,5.35
2018-07-07T22:53:58.880Z,5.00
2018-07-07T22:56:33.142Z,6.33
2018-07-07T22:59:06.535Z,3.58
2018-07-07T23:01:39.984Z,8.68
2018-07-07T23:04:13.381Z,7.60
2018-07-07T23:06:47.251Z,5.42
2018-07-07T23:09:20.679Z,8.28
2018-07-07T23:11:54.942Z,7.17
2018-07-07T23:14:28.404Z,9.25
2018-07-07T23:17:02.763Z,6.72
2018-07-07T23:19:36.250Z,7.35
2018-07-07T23:22:09.661Z,6.40
2018-07-07T23:24:43.185Z,6.75
2018-07-07T23:27:16.622Z,6.62
2018-07-07T23:29:50.051Z,7.05
2018-07-07T23:32:23.535Z,4.85
2018-07-07T23:34:56.935Z,6.00
2018-07-07T23:37:36.849Z,8.15
2018-07-07T23:40:10.683Z,5.62
2018-07-07T23:42:44.131Z,6.65
2018-07-07T23:45:17.528Z,8.35
2018-07-07T23:47:50.959Z,5.40
2018-07-07T23:50:24.370Z,7.78
2018-07-07T23:52:57.827Z,5.45
2018-07-07T23:55:31.204Z,4.47
2018-07-07T23:58:04.645Z,5.78
